Time;durP1;ratioP1;P1;durP2;ratioP2;P2;SDS_P1;SDS_P2;PMS_P1;PMS_P2;Temp;Humidity;BMP_temperature;BMP_pressure;BME280_temperature;BME280_humidity;BME280_pressure;Samples;Min_cycle;Max_cycle;Signal;HPM_P1;HPM_P2
2020/12/06 00:00:30;;;;;;;28.25;19.27;;;;;;;7.43;82.26;94899.34;4190284;28;20718;-76
2020/12/06 00:02:32;;;;;;;28.77;17.77;;;;;;;7.38;82.05;94899.75;4181287;28;20056;-76
2020/12/06 00:04:33;;;;;;;27.83;19.02;;;;;;;7.42;82.12;94902.06;4187969;28;20053;-77
2020/12/06 00:06:35;;;;;;;26.77;19.95;;;;;;;7.44;81.96;94902.75;4184838;28;20048;-77
2020/12/06 00:08:38;;;;;;;27.05;17.77;;;;;;;7.51;81.25;94894.28;4174929;28;20048;-77
2020/12/06 00:10:39;;;;;;;28.40;19.23;;;;;;;7.50;81.53;94899.63;4193104;28;20122;-76
2020/12/06 00:12:42;;;;;;;30.20;18.60;;;;;;;7.51;81.77;94901.28;4158855;28;20788;-77
2020/12/06 00:14:43;;;;;;;30.38;17.95;;;;;;;7.42;81.96;94910.75;4192520;28;20632;-76
2020/12/06 00:16:48;;;;;;;27.38;18.30;;;;;;;7.47;81.75;94907.72;4194400;28;20116;-76
2020/12/06 00:18:49;;;;;;;28.58;18.85;;;;;;;7.44;82.02;94910.59;4159533;28;20060;-77
2020/12/06 00:20:50;;;;;;;30.48;19.55;;;;;;;7.50;81.86;94907.44;4176258;28;20057;-78
2020/12/06 00:22:52;;;;;;;28.58;18.02;;;;;;;7.44;82.25;94910.59;4175477;28;20511;-76
2020/12/06 00:24:53;;;;;;;27.98;19.35;;;;;;;7.48;82.04;94910.19;4184254;28;20057;-77
2020/12/06 00:26:57;;;;;;;27.38;18.15;;;;;;;7.47;81.82;94900.72;4170859;28;20512;-78
2020/12/06 00:28:58;;;;;;;32.40;18.95;;;;;;;7.47;81.96;94905.13;4190375;28;20483;-78
2020/12/06 00:31:00;;;;;;;29.52;19.73;;;;;;;7.49;82.10;94911.84;4194191;28;20471;-77
2020/12/06 00:33:01;;;;;;;28.20;19.25;;;;;;;7.49;82.31;94909.22;4192800;28;20059;-77
2020/12/06 00:35:04;;;;;;;31.42;17.70;;;;;;;7.52;81.71;94913.34;4192871;28;20052;-78
2020/12/06 00:37:06;;;;;;;27.92;18.52;;;;;;;7.58;81.47;94911.03;4175898;28;20063;-77
2020/12/06 00:39:07;;;;;;;27.60;18.00;;;;;;;7.58;81.29;94910.19;4190823;28;20118;-78
2020/12/06 00:41:15;;;;;;;27.23;17.70;;;;;;;7.55;81.55;94898.28;4175861;28;20052;-78
2020/12/06 00:43:17;;;;;;;23.67;16.73;;;;;;;7.53;81.53;94912.41;4192446;28;20349;-78
2020/12/06 00:45:18;;;;;;;25.48;17.25;;;;;;;7.58;80.96;94907.59;4167121;28;20087;-79
2020/12/06 00:47:19;;;;;;;27.55;17.63;;;;;;;7.62;81.40;94910.75;4193225;28;20573;-75
2020/12/06 00:49:20;;;;;;;25.38;16.90;;;;;;;7.61;80.90;94914.31;4175613;28;20540;-76
2020/12/06 00:51:21;;;;;;;26.65;16.50;;;;;;;7.52;81.29;94915.94;4193699;28;20110;-78
2020/12/06 00:53:22;;;;;;;25.67;16.60;;;;;;;7.57;81.01;94914.59;4193299;28;20502;-77
2020/12/06 00:55:24;;;;;;;23.95;16.23;;;;;;;7.57;81.11;94912.00;4192725;28;20064;-77
2020/12/06 00:57:25;;;;;;;25.85;17.02;;;;;;;7.53;81.34;94912.41;4174347;28;20463;-77
2020/12/06 00:59:26;;;;;;;26.17;16.40;;;;;;;7.55;81.00;94908.69;4191784;28;20063;-76
2020/12/06 01:01:27;;;;;;;25.70;17.67;;;;;;;7.57;81.22;94905.94;4192512;28;20051;-77
2020/12/06 01:03:28;;;;;;;25.90;16.52;;;;;;;7.55;80.87;94908.69;4193409;28;20078;-77
2020/12/06 01:05:30;;;;;;;22.00;16.33;;;;;;;7.51;81.10;94899.50;4175423;28;20068;-68
2020/12/06 01:07:41;;;;;;;24.00;16.45;;;;;;;7.46;81.60;94896.44;4205775;28;20052;-69
2020/12/06 01:09:42;;;;;;;24.40;17.30;;;;;;;7.46;82.06;94893.03;4190517;28;20416;-67
2020/12/06 01:11:48;;;;;;;26.20;16.88;;;;;;;7.47;82.32;94902.50;4174550;28;20474;-68
2020/12/06 01:13:49;;;;;;;23.98;16.98;;;;;;;7.34;82.39;94895.75;4190711;28;20052;-68
2020/12/06 01:15:50;;;;;;;25.58;17.23;;;;;;;7.42;81.97;94895.09;4193663;28;20056;-69
2020/12/06 01:17:51;;;;;;;26.48;16.95;;;;;;;7.47;82.17;94902.50;4186673;28;20052;-69
2020/12/06 01:19:53;;;;;;;29.23;17.33;;;;;;;7.50;81.58;94892.63;4191707;28;20466;-69
2020/12/06 01:21:54;;;;;;;27.25;17.98;;;;;;;7.48;81.78;94899.75;4191275;28;20553;-69
2020/12/06 01:23:55;;;;;;;23.35;16.38;;;;;;;7.41;81.88;94892.63;4192969;28;20045;-69
2020/12/06 01:25:56;;;;;;;27.55;16.75;;;;;;;7.47;81.77;94899.91;4173826;28;20122;-69
2020/12/06 01:27:57;;;;;;;27.15;17.25;;;;;;;7.50;81.73;94904.84;4192946;28;20059;-69
2020/12/06 01:29:58;;;;;;;25.10;16.63;;;;;;;7.51;81.48;94899.50;4189814;28;20131;-68
2020/12/06 01:32:00;;;;;;;23.65;16.05;;;;;;;7.50;81.63;94899.63;4191327;28;20405;-69
2020/12/06 01:34:01;;;;;;;23.27;16.13;;;;;;;7.51;81.19;94888.25;4174274;28;20515;-69
2020/12/06 01:36:03;;;;;;;23.95;15.73;;;;;;;7.50;81.77;94894.41;4158706;28;20168;-67
2020/12/06 01:38:04;;;;;;;24.92;16.38;;;;;;;7.48;81.65;94891.13;4189273;28;20045;-69
2020/12/06 01:40:05;;;;;;;23.92;16.67;;;;;;;7.47;81.72;94886.88;4191363;28;20048;-68
2020/12/06 01:42:06;;;;;;;26.25;17.65;;;;;;;7.47;81.89;94887.69;4191574;28;20226;-69
2020/12/06 01:44:07;;;;;;;29.33;17.30;;;;;;;7.49;81.56;94895.38;4191343;28;20143;-69
2020/12/06 01:46:13;;;;;;;26.23;17.00;;;;;;;7.48;81.41;94889.31;4191931;28;20509;-69
2020/12/06 01:48:14;;;;;;;22.48;15.88;;;;;;;7.45;81.79;94888.78;4192655;28;20044;-68
2020/12/06 01:50:15;;;;;;;25.15;16.45;;;;;;;7.47;82.15;94892.91;4191829;28;20048;-69
2020/12/06 01:52:17;;;;;;;25.23;16.95;;;;;;;7.40;82.00;94883.97;4191533;28;20478;-68
2020/12/06 01:54:18;;;;;;;22.95;14.90;;;;;;;7.35;82.00;94889.56;4191312;28;20044;-69
2020/12/06 01:56:19;;;;;;;22.27;15.63;;;;;;;7.38;82.01;94881.50;4192625;28;20553;-68
2020/12/06 01:58:24;;;;;;;22.90;15.63;;;;;;;7.39;81.72;94879.72;4187730;28;20049;-69
2020/12/06 02:00:26;;;;;;;21.83;15.13;;;;;;;7.38;81.38;94883.28;4174551;28;20053;-69
2020/12/06 02:02:27;;;;;;;24.20;14.93;;;;;;;7.36;81.93;94883.41;4191371;28;20443;-69
2020/12/06 02:04:29;;;;;;;20.20;15.05;;;;;;;7.34;81.57;94887.94;4192603;28;20106;-68
2020/12/06 02:06:30;;;;;;;24.20;15.52;;;;;;;7.40;81.35;94881.38;4173288;28;20485;-70
2020/12/06 02:08:33;;;;;;;24.33;15.48;;;;;;;7.48;81.05;94883.28;4172985;28;20049;-69
2020/12/06 02:10:34;;;;;;;22.83;15.60;;;;;;;7.54;80.46;94882.75;4191278;28;20053;-69
2020/12/06 02:12:35;;;;;;;18.98;13.57;;;;;;;7.52;80.41;94874.25;4190479;28;20412;-69
2020/12/06 02:14:36;;;;;;;21.15;13.75;;;;;;;7.52;80.37;94877.66;4190561;28;20057;-70
2020/12/06 02:16:38;;;;;;;18.02;14.00;;;;;;;7.50;80.46;94873.56;4173175;28;20068;-70
2020/12/06 02:18:39;;;;;;;21.17;12.63;;;;;;;7.47;80.45;94871.22;4190969;28;20579;-69
2020/12/06 02:20:41;;;;;;;22.65;13.85;;;;;;;7.49;80.53;94882.34;4191509;28;20044;-69
2020/12/06 02:22:42;;;;;;;18.27;12.95;;;;;;;7.48;80.39;94880.69;4192720;28;20044;-70
2020/12/06 02:24:43;;;;;;;19.02;13.38;;;;;;;7.50;80.38;94871.75;4172555;28;20053;-69
2020/12/06 02:26:47;;;;;;;21.55;13.80;;;;;;;7.54;79.97;94877.53;4192226;28;20055;-69
2020/12/06 02:28:48;;;;;;;19.55;12.90;;;;;;;7.53;79.86;94879.34;4171676;28;20143;-69
2020/12/06 02:30:49;;;;;;;19.27;13.32;;;;;;;7.50;79.95;94878.75;4192404;28;20071;-70
2020/12/06 02:32:51;;;;;;;22.92;15.07;;;;;;;7.52;80.00;94877.66;4182156;28;20439;-69
2020/12/06 02:34:52;;;;;;;21.23;13.52;;;;;;;7.54;80.28;94877.53;4173412;28;20064;-69
2020/12/06 02:36:53;;;;;;;20.88;13.00;;;;;;;7.54;79.96;94873.16;4191268;28;20085;-69
2020/12/06 02:38:54;;;;;;;20.90;13.38;;;;;;;7.53;80.39;94868.09;4191902;28;20056;-69
2020/12/06 02:40:55;;;;;;;17.60;12.82;;;;;;;7.48;80.16;94871.06;4192166;28;20480;-68
2020/12/06 02:42:56;;;;;;;19.58;13.45;;;;;;;7.44;80.63;94872.31;4191140;28;20573;-69
2020/12/06 02:44:58;;;;;;;21.27;13.40;;;;;;;7.46;79.89;94861.75;4172877;28;20041;-69
2020/12/06 02:46:59;;;;;;;20.77;13.10;;;;;;;7.49;80.20;94864.09;4173001;28;20419;-70
2020/12/06 02:49:01;;;;;;;21.35;13.60;;;;;;;7.47;80.89;94869.44;4174049;28;20059;-69
2020/12/06 02:51:05;;;;;;;22.50;13.73;;;;;;;7.39;80.79;94864.91;4191206;28;20063;-69
2020/12/06 02:53:06;;;;;;;18.10;12.80;;;;;;;7.38;80.63;94859.84;4205083;28;20052;-69
2020/12/06 02:55:07;;;;;;;19.17;13.63;;;;;;;7.43;80.65;94860.25;4177423;28;20474;-70
2020/12/06 02:57:09;;;;;;;19.25;13.30;;;;;;;7.49;80.18;94859.69;4201247;28;20120;-68
2020/12/06 02:59:10;;;;;;;21.20;13.43;;;;;;;7.45;80.69;94867.94;4171408;28;20057;-69
2020/12/06 03:01:12;;;;;;;19.65;13.77;;;;;;;7.47;80.52;94856.41;4173628;28;20053;-70
2020/12/06 03:03:13;;;;;;;19.98;13.80;;;;;;;7.48;80.29;94862.44;4190483;28;20118;-69
2020/12/06 03:05:14;;;;;;;24.10;13.40;;;;;;;7.46;80.52;94862.56;4188076;28;20053;-76
2020/12/06 03:07:16;;;;;;;19.13;13.52;;;;;;;7.51;80.17;94857.78;4182677;28;20044;-77
2020/12/06 03:09:17;;;;;;;24.00;15.00;;;;;;;7.47;80.55;94858.19;4191385;28;20044;-77
2020/12/06 03:11:19;;;;;;;18.63;13.85;;;;;;;7.47;80.30;94858.19;4191212;28;20240;-76
2020/12/06 03:13:20;;;;;;;19.60;13.63;;;;;;;7.50;80.43;94843.09;4190387;28;20065;-76
2020/12/06 03:15:21;;;;;;;21.40;13.75;;;;;;;7.49;80.21;94848.47;4191347;28;20067;-76
2020/12/06 03:17:22;;;;;;;18.52;12.82;;;;;;;7.43;80.36;94852.41;4196818;28;20056;-76
2020/12/06 03:19:23;;;;;;;18.60;12.70;;;;;;;7.42;80.72;94849.94;4172604;28;20477;-77
2020/12/06 03:21:24;;;;;;;19.80;13.23;;;;;;;7.47;80.34;94852.97;4180412;28;20509;-76
2020/12/06 03:23:25;;;;;;;16.73;12.50;;;;;;;7.48;80.35;94846.78;4206268;28;20094;-77
2020/12/06 03:25:27;;;;;;;18.77;13.48;;;;;;;7.45;80.39;94847.09;4191281;28;20052;-77
2020/12/06 03:27:28;;;;;;;19.58;12.80;;;;;;;7.43;80.81;94842.00;4191563;28;20426;-76
2020/12/06 03:29:29;;;;;;;17.92;12.40;;;;;;;7.41;80.35;94846.53;4148777;28;20101;-76
2020/12/06 03:31:31;;;;;;;17.50;12.05;;;;;;;7.43;80.25;94849.00;4175937;28;20357;-77
2020/12/06 03:33:32;;;;;;;19.73;12.70;;;;;;;7.42;80.52;94852.56;4188315;28;20284;-76
2020/12/06 03:35:34;;;;;;;20.70;12.27;;;;;;;7.41;80.66;94845.72;4172621;28;20053;-78
2020/12/06 03:37:35;;;;;;;20.42;12.95;;;;;;;7.45;80.31;94844.47;4157444;28;20389;-76
2020/12/06 03:39:36;;;;;;;18.42;12.70;;;;;;;7.38;80.32;94842.41;4190465;28;20110;-77
2020/12/06 03:41:37;;;;;;;22.02;14.70;;;;;;;7.39;80.47;94845.84;4183249;28;20057;-76
2020/12/06 03:43:39;;;;;;;17.30;12.35;;;;;;;7.43;80.52;94842.00;4183558;28;20560;-76
2020/12/06 03:45:40;;;;;;;18.38;12.63;;;;;;;7.38;81.09;94845.00;4181400;28;20057;-77
2020/12/06 03:47:41;;;;;;;19.58;14.13;;;;;;;7.38;81.33;94850.22;4192691;28;20286;-77
2020/12/06 03:49:43;;;;;;;20.38;13.65;;;;;;;7.36;81.07;94852.16;4192063;28;20045;-75
2020/12/06 03:51:45;;;;;;;21.50;14.60;;;;;;;7.38;80.94;94847.63;4177038;28;20059;-76
2020/12/06 03:53:49;;;;;;;19.35;14.10;;;;;;;7.39;81.38;94848.44;4198784;28;20523;-75
2020/12/06 03:55:50;;;;;;;20.52;13.75;;;;;;;7.36;81.64;94852.16;4198060;28;20094;-77
2020/12/06 03:57:52;;;;;;;22.27;13.38;;;;;;;7.35;81.47;94845.28;4159977;28;20476;-76
2020/12/06 03:59:53;;;;;;;21.83;13.32;;;;;;;7.37;81.80;94855.56;4181228;28;20145;-76
2020/12/06 04:01:54;;;;;;;19.75;13.10;;;;;;;7.35;81.60;94855.69;4193589;28;20131;-77
2020/12/06 04:03:55;;;;;;;19.48;13.32;;;;;;;7.38;81.80;94857.22;4184684;28;20068;-76
2020/12/06 04:05:56;;;;;;;19.63;14.07;;;;;;;7.41;81.66;94845.72;4189390;28;20045;-78
2020/12/06 04:07:57;;;;;;;17.75;12.65;;;;;;;7.41;81.63;94846.53;4175250;28;20165;-77
2020/12/06 04:09:59;;;;;;;21.73;13.75;;;;;;;7.33;81.79;94843.75;4175205;28;20497;-75
2020/12/06 04:12:00;;;;;;;17.27;12.60;;;;;;;7.35;81.58;94842.66;4193784;28;20555;-77
2020/12/06 04:14:01;;;;;;;20.40;13.05;;;;;;;7.36;81.82;94844.31;4190885;28;20060;-77
2020/12/06 04:16:03;;;;;;;18.23;12.43;;;;;;;7.28;81.81;94838.97;4193808;28;20109;-76
2020/12/06 04:18:04;;;;;;;18.15;12.00;;;;;;;7.33;82.09;94841.16;4193783;28;20049;-75
2020/12/06 04:20:06;;;;;;;18.58;12.20;;;;;;;7.29;82.44;94840.63;4175277;28;20079;-77
2020/12/06 04:22:07;;;;;;;19.48;13.05;;;;;;;7.25;82.46;94843.59;4176022;28;20045;-76
2020/12/06 04:24:08;;;;;;;18.88;12.10;;;;;;;7.26;82.31;94848.69;4193555;28;20041;-76
2020/12/06 04:26:09;;;;;;;15.77;10.77;;;;;;;7.27;82.21;94842.53;4193891;28;20060;-78
2020/12/06 04:28:11;;;;;;;16.95;11.23;;;;;;;7.32;82.16;94842.13;4175005;28;20071;-76
2020/12/06 04:30:12;;;;;;;17.77;11.57;;;;;;;7.33;82.29;94839.38;4191303;28;20106;-77
2020/12/06 04:32:13;;;;;;;16.05;11.02;;;;;;;7.38;81.91;94839.81;4193864;28;20148;-78
2020/12/06 04:34:14;;;;;;;17.88;12.02;;;;;;;7.30;82.09;94842.25;4194095;28;20060;-77
2020/12/06 04:36:15;;;;;;;18.77;11.23;;;;;;;7.33;82.31;94838.56;4175570;28;20053;-78
2020/12/06 04:38:17;;;;;;;15.80;11.13;;;;;;;7.35;82.02;94837.44;4192621;28;20113;-77
2020/12/06 04:40:18;;;;;;;16.05;11.43;;;;;;;7.33;82.07;94839.38;4189211;28;20048;-76
2020/12/06 04:42:20;;;;;;;18.55;11.27;;;;;;;7.37;82.00;94838.13;4194194;28;20056;-76
2020/12/06 04:44:21;;;;;;;14.68;10.68;;;;;;;7.45;81.62;94841.88;4189624;28;20048;-75
2020/12/06 04:46:24;;;;;;;16.23;11.85;;;;;;;7.48;81.74;94829.38;4176287;28;20049;-77
2020/12/06 04:48:44;;;;;;;14.67;11.43;;;;;;;7.45;81.76;94828.84;4175490;28;20049;-76
2020/12/06 04:50:46;;;;;;;20.13;11.63;;;;;;;7.37;82.17;94840.75;4193557;28;20466;-76
2020/12/06 04:52:55;;;;;;;17.02;11.18;;;;;;;7.38;82.14;94842.41;4175190;28;20060;-74
2020/12/06 04:54:59;;;;;;;18.25;11.98;;;;;;;7.43;82.20;94846.41;4174856;28;20045;-76
2020/12/06 04:57:04;;;;;;;19.30;11.95;;;;;;;7.47;81.90;94850.38;4193336;28;20105;-76
2020/12/06 04:59:06;;;;;;;17.13;11.82;;;;;;;7.49;82.01;94856.28;4174039;28;20591;-77
2020/12/06 05:01:07;;;;;;;21.65;11.77;;;;;;;7.50;81.69;94852.69;4158067;28;20464;-75
2020/12/06 05:03:11;;;;;;;18.50;11.55;;;;;;;7.52;81.71;94854.22;4193533;28;20052;-76
2020/12/06 05:05:14;;;;;;;18.25;11.23;;;;;;;7.58;81.68;94853.66;4194001;28;20270;-77
2020/12/06 05:07:17;;;;;;;15.68;10.30;;;;;;;7.57;81.21;94859.84;4191852;28;20185;-76
2020/12/06 05:09:21;;;;;;;16.65;10.77;;;;;;;7.52;81.40;94851.59;4192303;28;20056;-78
2020/12/06 05:11:22;;;;;;;15.95;10.73;;;;;;;7.59;81.61;94854.47;4175615;28;20053;-77
2020/12/06 05:13:23;;;;;;;20.83;11.43;;;;;;;7.61;80.89;94856.97;4172596;28;20057;-76
2020/12/06 05:15:24;;;;;;;19.90;11.32;;;;;;;7.59;81.59;94870.97;4192384;28;20070;-76
2020/12/06 05:17:25;;;;;;;17.92;11.57;;;;;;;7.59;81.50;94867.50;4174576;28;20049;-76
2020/12/06 05:19:27;;;;;;;19.08;10.85;;;;;;;7.58;81.44;94863.28;4193300;28;20049;-76
2020/12/06 05:21:36;;;;;;;18.65;10.82;;;;;;;7.52;81.81;94859.41;4174902;28;20056;-77
2020/12/06 05:23:37;;;;;;;18.75;10.70;;;;;;;7.51;81.78;94862.19;4188933;28;20056;-78
2020/12/06 05:25:39;;;;;;;16.25;10.88;;;;;;;7.52;81.43;94853.38;4188233;28;20056;-76
2020/12/06 05:27:42;;;;;;;14.57;10.00;;;;;;;7.48;81.87;94855.44;4200169;28;20418;-76
2020/12/06 05:29:43;;;;;;;20.90;10.90;;;;;;;7.46;81.75;94848.72;4179860;28;20073;-78
2020/12/06 05:31:45;;;;;;;18.75;11.02;;;;;;;7.44;81.88;94855.84;4192458;28;20056;-76
2020/12/06 05:33:46;;;;;;;16.40;10.95;;;;;;;7.46;81.86;94851.31;4173603;28;20052;-78
2020/12/06 05:35:47;;;;;;;17.27;10.57;;;;;;;7.50;81.28;94856.13;4179352;28;20074;-77
2020/12/06 05:37:49;;;;;;;15.52;10.15;;;;;;;7.56;81.63;94859.97;4201930;28;20513;-78
2020/12/06 05:40:11;;;;;;;16.23;10.30;;;;;;;7.58;81.34;94863.28;4175996;28;20049;-80
2020/12/06 05:42:12;;;;;;;20.60;12.18;;;;;;;7.63;81.02;94857.66;4183274;28;20581;-77
2020/12/06 05:44:19;;;;;;;18.13;11.02;;;;;;;7.61;80.96;94863.00;4187671;28;20051;-76
2020/12/06 05:46:25;;;;;;;19.55;12.27;;;;;;;7.61;81.26;94875.22;4191358;28;20056;-76
2020/12/06 05:48:26;;;;;;;18.42;10.82;;;;;;;7.65;80.72;94874.78;4183253;28;20162;-76
2020/12/06 05:50:28;;;;;;;17.48;11.65;;;;;;;7.66;80.69;94886.88;4173410;28;20063;-69
2020/12/06 05:52:31;;;;;;;15.38;10.50;;;;;;;7.72;80.67;94875.91;4176127;28;20072;-68
2020/12/06 05:54:33;;;;;;;18.48;11.15;;;;;;;7.76;80.49;94876.44;4187252;28;20057;-70
2020/12/06 05:56:36;;;;;;;16.77;10.88;;;;;;;7.74;80.90;94879.22;4169204;28;20132;-68
2020/12/06 05:58:40;;;;;;;14.00;10.00;;;;;;;7.69;80.83;94881.38;4164334;28;20566;-69
2020/12/06 06:00:42;;;;;;;17.00;10.50;;;;;;;7.74;80.49;94887.03;4197798;28;20052;-68
2020/12/06 06:02:46;;;;;;;18.63;10.80;;;;;;;7.75;80.67;94900.88;4181312;28;20092;-77
2020/12/06 06:04:48;;;;;;;17.27;10.50;;;;;;;7.72;80.72;94886.34;4178917;28;20205;-78
2020/12/06 06:06:51;;;;;;;17.77;10.95;;;;;;;7.70;80.59;94890.88;4189523;28;20063;-77
2020/12/06 06:09:00;;;;;;;16.95;10.93;;;;;;;7.63;81.26;94891.53;4173437;28;20037;-76
2020/12/06 06:11:16;;;;;;;15.55;10.50;;;;;;;7.59;81.65;94890.97;4174519;28;20064;-77
2020/12/06 06:13:21;;;;;;;17.88;11.25;;;;;;;7.63;81.53;94887.13;4190853;28;20102;-77
2020/12/06 06:15:22;;;;;;;20.60;12.75;;;;;;;7.63;81.17;94884.53;4177505;28;20589;-76
2020/12/06 06:17:24;;;;;;;38.25;25.77;;;;;;;7.66;81.21;94886.03;4173664;28;20048;-77
2020/12/06 06:19:25;;;;;;;23.35;15.45;;;;;;;7.70;81.31;94887.41;4181514;28;20053;-77
2020/12/06 06:21:36;;;;;;;17.88;11.80;;;;;;;7.75;80.85;94895.66;4175575;28;20049;-78
2020/12/06 06:23:37;;;;;;;18.65;11.15;;;;;;;7.76;81.04;94890.28;4173214;28;20225;-77
2020/12/06 06:25:39;;;;;;;19.63;11.63;;;;;;;7.75;80.49;94890.47;4174396;28;20044;-75
2020/12/06 06:27:41;;;;;;;17.55;10.60;;;;;;;7.81;79.82;94892.53;4175569;28;20118;-77
2020/12/06 06:29:42;;;;;;;18.08;10.00;;;;;;;7.84;79.92;94894.03;4192408;28;20048;-76
2020/12/06 06:31:46;;;;;;;13.85;8.95;;;;;;;7.84;80.08;94889.63;4193274;28;20059;-77
2020/12/06 06:33:48;;;;;;;14.75;10.27;;;;;;;7.85;80.31;94887.84;4172045;28;20488;-79
2020/12/06 06:35:50;;;;;;;18.30;10.27;;;;;;;7.88;79.67;94896.22;4190228;28;20063;-78
2020/12/06 06:38:08;;;;;;;13.32;9.55;;;;;;;7.87;79.81;94894.59;4176423;28;20072;-69
2020/12/06 06:40:10;;;;;;;14.13;9.32;;;;;;;7.93;79.75;94898.41;4156323;28;20053;-69
2020/12/06 06:42:13;;;;;;;12.50;9.75;;;;;;;7.90;79.66;94894.28;4159940;28;20059;-68
2020/12/06 06:44:17;;;;;;;18.20;9.70;;;;;;;7.93;79.50;94893.19;4188075;28;20048;-69
2020/12/06 06:46:21;;;;;;;14.63;9.73;;;;;;;7.96;79.25;94898.16;4188028;28;20057;-67
2020/12/06 06:48:23;;;;;;;13.82;9.98;;;;;;;8.02;79.34;94899.38;4182238;28;20044;-67
2020/12/06 06:50:24;;;;;;;12.63;8.90;;;;;;;7.99;79.86;94890.03;4173561;28;20419;-68
2020/12/06 06:52:27;;;;;;;12.75;9.07;;;;;;;7.98;79.41;94901.44;4175010;28;20060;-69
2020/12/06 06:54:29;;;;;;;15.45;9.30;;;;;;;7.99;79.68;94900.47;4172481;28;20136;-68
2020/12/06 06:56:32;;;;;;;14.15;9.48;;;;;;;7.96;79.57;94898.97;4174060;28;20128;-69
2020/12/06 06:58:34;;;;;;;15.32;10.10;;;;;;;8.04;78.91;94895.66;4171521;28;20049;-69
2020/12/06 07:00:35;;;;;;;15.40;9.90;;;;;;;8.02;79.11;94896.75;4190598;28;20059;-68
2020/12/06 07:02:41;;;;;;;14.60;10.00;;;;;;;8.01;79.35;94895.94;4191521;28;20052;-69
2020/12/06 07:04:45;;;;;;;16.60;9.80;;;;;;;8.04;79.33;94894.84;4171134;28;20100;-68
2020/12/06 07:06:48;;;;;;;17.02;9.93;;;;;;;8.11;78.87;94891.53;4172037;28;20055;-70
2020/12/06 07:08:50;;;;;;;14.52;9.95;;;;;;;8.15;78.64;94895.53;4173096;28;20056;-78
2020/12/06 07:10:51;;;;;;;16.35;10.45;;;;;;;8.26;78.53;94896.31;4192728;28;20082;-77
2020/12/06 07:12:57;;;;;;;13.43;9.35;;;;;;;8.32;77.63;94890.53;4191959;28;20090;-77
2020/12/06 07:14:59;;;;;;;15.18;10.25;;;;;;;8.32;77.77;94890.53;4171117;28;20049;-80
2020/12/06 07:17:00;;;;;;;18.08;10.50;;;;;;;8.34;77.18;94893.81;4178712;28;20053;-80
2020/12/06 07:19:02;;;;;;;17.00;10.52;;;;;;;8.37;77.11;94891.78;4173729;28;20404;-79
2020/12/06 07:21:03;;;;;;;16.55;10.25;;;;;;;8.35;77.37;94883.25;4194332;28;20438;-79
2020/12/06 07:23:05;;;;;;;56.90;38.15;;;;;;;8.40;76.57;94880.22;4195051;28;20518;-79
2020/12/06 07:25:09;;;;;;;29.67;17.73;;;;;;;8.47;77.11;94883.94;4194231;28;20055;-80
2020/12/06 07:27:10;;;;;;;18.70;10.40;;;;;;;8.49;76.04;94882.00;4177126;28;20415;-77
2020/12/06 07:29:12;;;;;;;18.00;10.35;;;;;;;8.51;76.67;94890.53;4199454;28;20487;-78
2020/12/06 07:31:14;;;;;;;13.35;9.50;;;;;;;8.52;76.03;94879.13;4193472;28;20407;-79
2020/12/06 07:33:15;;;;;;;14.43;9.65;;;;;;;8.58;75.85;94881.19;4189440;28;20055;-77
2020/12/06 07:35:19;;;;;;;15.45;10.18;;;;;;;8.48;76.38;94884.78;4206520;28;20056;-77
2020/12/06 07:37:21;;;;;;;20.98;11.98;;;;;;;8.49;76.44;94879.38;4161885;28;20214;-78
2020/12/06 07:39:22;;;;;;;24.98;15.13;;;;;;;8.50;75.47;94882.84;4195148;28;20107;-79
2020/12/06 07:41:23;;;;;;;18.75;11.48;;;;;;;8.46;76.35;94878.88;4177099;28;20045;-77
2020/12/06 07:43:25;;;;;;;16.42;10.40;;;;;;;8.50;76.05;94878.44;4175290;28;20067;-79
2020/12/06 07:45:26;;;;;;;14.48;10.18;;;;;;;8.48;75.89;94882.16;4195375;28;20051;-80
2020/12/06 07:47:27;;;;;;;15.25;10.60;;;;;;;8.53;76.13;94875.53;4175234;28;20484;-78
2020/12/06 07:49:41;;;;;;;17.85;11.18;;;;;;;8.55;75.45;94881.44;4176212;28;20076;-77
2020/12/06 07:51:42;;;;;;;18.25;10.45;;;;;;;8.59;75.78;94887.22;4176569;28;20114;-76
2020/12/06 07:53:50;;;;;;;16.63;10.23;;;;;;;8.62;75.25;94868.63;4181332;28;20049;-77
2020/12/06 07:56:06;;;;;;;17.70;10.50;;;;;;;8.65;75.40;94872.75;4176510;28;20049;-79
2020/12/06 07:58:11;;;;;;;17.60;9.98;;;;;;;8.69;74.94;94868.88;4193374;28;20051;-77
2020/12/06 08:00:23;;;;;;;17.15;11.30;;;;;;;8.75;74.40;94878.75;4159173;28;20053;-81
2020/12/06 08:02:28;;;;;;;14.70;10.82;;;;;;;8.87;74.18;94872.41;4171628;28;20381;-78
2020/12/06 08:04:32;;;;;;;19.02;11.30;;;;;;;8.90;74.32;94869.47;4197946;28;20086;-79
2020/12/06 08:06:34;;;;;;;16.60;10.57;;;;;;;8.95;74.24;94869.06;4187998;28;20132;-79
2020/12/06 08:08:39;;;;;;;20.92;11.02;;;;;;;8.98;74.18;94871.38;4176031;28;20523;-78
2020/12/06 08:10:41;;;;;;;15.40;9.85;;;;;;;9.03;73.89;94869.16;4195161;28;20122;-78
2020/12/06 08:12:44;;;;;;;16.00;9.88;;;;;;;9.05;73.51;94869.81;4194682;28;20468;-79
2020/12/06 08:14:45;;;;;;;14.60;10.15;;;;;;;9.12;73.90;94862.22;4176216;28;20202;-80
2020/12/06 08:16:56;;;;;;;14.18;9.82;;;;;;;9.12;73.09;94865.69;4179947;28;20484;-79
2020/12/06 08:19:03;;;;;;;17.40;10.70;;;;;;;9.15;73.02;94854.09;4176071;28;20048;-79
2020/12/06 08:21:05;;;;;;;15.85;10.48;;;;;;;9.17;72.69;94846.94;4198914;28;20049;-77
2020/12/06 08:23:06;;;;;;;15.43;11.52;;;;;;;9.25;72.62;94865.34;4196491;28;20099;-79
2020/12/06 08:25:07;;;;;;;15.68;10.88;;;;;;;9.29;72.22;94856.22;4197321;28;20629;-78
2020/12/06 08:27:19;;;;;;;18.33;11.60;;;;;;;9.37;72.19;94853.69;4177860;28;20045;-75
2020/12/06 08:29:36;;;;;;;17.67;11.02;;;;;;;9.34;71.69;94854.00;4172848;28;20147;-79
2020/12/06 08:31:37;;;;;;;17.55;11.48;;;;;;;9.33;72.34;94862.78;4175846;28;20057;-77
2020/12/06 08:33:38;;;;;;;16.85;11.35;;;;;;;9.36;73.00;94856.47;4173416;28;20119;-80
2020/12/06 08:35:43;;;;;;;18.67;12.15;;;;;;;9.42;72.50;94855.84;4194291;28;20056;-78
2020/12/06 08:37:44;;;;;;;26.05;15.02;;;;;;;9.50;72.27;94850.69;4194475;28;20052;-77
2020/12/06 08:39:47;;;;;;;17.98;12.05;;;;;;;9.52;71.51;94856.59;4193552;28;20231;-79
2020/12/06 08:41:49;;;;;;;18.70;12.55;;;;;;;9.54;71.90;94853.84;4186688;28;20056;-78
2020/12/06 08:43:57;;;;;;;18.95;12.15;;;;;;;9.68;71.33;94855.97;4187523;28;20056;-76
2020/12/06 08:46:08;;;;;;;17.17;12.13;;;;;;;9.64;71.60;94850.19;4178464;28;20057;-77
2020/12/06 08:48:09;;;;;;;19.08;12.20;;;;;;;9.57;71.57;94848.31;4194065;28;20281;-77
2020/12/06 08:50:14;;;;;;;18.95;12.35;;;;;;;9.49;71.83;94854.31;4194003;28;20096;-78
2020/12/06 08:52:21;;;;;;;21.20;13.95;;;;;;;9.62;72.02;94856.56;4175474;28;20049;-77
2020/12/06 08:54:33;;;;;;;23.17;13.48;;;;;;;9.66;71.87;94844.81;4192076;28;20063;-80
2020/12/06 08:56:35;;;;;;;19.73;12.50;;;;;;;9.58;71.49;94849.97;4164806;28;20541;-78
2020/12/06 08:58:36;;;;;;;18.63;12.73;;;;;;;9.35;72.24;94847.78;4174945;28;20661;-78
2020/12/06 09:00:37;;;;;;;20.58;13.70;;;;;;;9.42;72.36;94841.00;4195708;28;20048;-78
2020/12/06 09:02:38;;;;;;;19.83;12.40;;;;;;;9.35;72.93;94849.56;4176347;28;20052;-78
2020/12/06 09:04:40;;;;;;;18.23;13.10;;;;;;;9.32;72.33;94840.25;4176859;28;20099;-77
2020/12/06 09:06:41;;;;;;;19.98;13.15;;;;;;;9.48;72.02;94847.41;4193579;28;20465;-82
2020/12/06 09:08:43;;;;;;;21.40;13.32;;;;;;;9.50;72.22;94844.66;4193808;28;20648;-79
2020/12/06 09:10:45;;;;;;;19.20;13.35;;;;;;;9.58;72.80;94842.13;4193512;28;20052;-78
2020/12/06 09:12:46;;;;;;;19.63;13.57;;;;;;;9.55;72.72;94834.56;4194226;28;20059;-78
2020/12/06 09:14:47;;;;;;;21.30;13.00;;;;;;;9.55;72.04;94835.41;4192585;28;20373;-77
2020/12/06 09:16:48;;;;;;;20.10;12.98;;;;;;;9.58;71.98;94832.47;4192685;28;20064;-76
2020/12/06 09:18:50;;;;;;;18.40;13.10;;;;;;;9.67;72.20;94829.94;4189259;28;20184;-78
2020/12/06 09:20:51;;;;;;;21.35;13.60;;;;;;;9.72;72.38;94825.91;4193061;28;20052;-79
2020/12/06 09:22:52;;;;;;;19.88;13.57;;;;;;;9.77;71.86;94817.59;4175553;28;20045;-78
2020/12/06 09:24:53;;;;;;;17.77;11.95;;;;;;;9.71;71.91;94813.78;4174256;28;20236;-78
2020/12/06 09:26:54;;;;;;;20.15;13.30;;;;;;;9.71;72.04;94802.50;4192345;28;20057;-77
2020/12/06 09:28:56;;;;;;;19.20;13.20;;;;;;;9.67;72.13;94801.16;4192136;28;20117;-80
2020/12/06 09:30:58;;;;;;;20.92;14.00;;;;;;;9.70;71.99;94812.16;4193242;28;20136;-79